KLUA

Luray Caverns Airport

Luray, Virginia, USA
METAR KLUA 241435Z AUTO 19003KT 10SM CLR 26/21 A2991 RMK AO2
Observed Flight Rules
Jun-24 @ 14:35 UTC (31 minutes ago) Visual Flight Rules
Wind Visibility Clouds
190° at 3 knots 10 miles
  • Clear skies
Temperatures Readings
Current 26°C / 79°F
Dewpoint 21°C / 70°F
Humidity 74%
Altimeter 29.91" Hg
Pressure 1013 hPa
Elevation 275
METAR KLUA 241435Z AUTO 19003KT 10SM CLR 26/21 A2991 RMK AO2
Observed Flight Rules
Jun-24 @ 14:35 UTC
(31 minutes ago)
VFR
Wind Visibility
190° at 3 knots 10 miles
Clouds
  • Clear skies
Temperature Dewpoint
26°C / 79°F 21°C / 70°F
Humidity Altimeter Pressure
74% 29.91" Hg 1013 hPa